createdAt,value
2019-01-28T00:00:37.063Z,4.30
2019-01-28T00:04:45.246Z,4.30
2019-01-28T00:08:53.465Z,4.30
2019-01-28T00:13:01.705Z,4.20
2019-01-28T00:17:09.902Z,4.30
2019-01-28T00:21:18.121Z,4.30
2019-01-28T00:25:26.319Z,4.20
2019-01-28T00:29:35.374Z,4.20
2019-01-28T00:33:43.638Z,4.10
2019-01-28T00:37:51.841Z,4.10
2019-01-28T00:42:00.122Z,4.10
2019-01-28T00:46:08.319Z,4.10
2019-01-28T00:50:16.519Z,4.10
2019-01-28T00:54:24.692Z,4.10
2019-01-28T00:58:32.909Z,4.10
2019-01-28T01:02:41.087Z,4.10
2019-01-28T01:06:49.330Z,4.10
2019-01-28T01:10:57.569Z,4.10
2019-01-28T01:15:08.119Z,4.10
2019-01-28T01:19:16.336Z,4.10
2019-01-28T01:23:24.517Z,4.10
2019-01-28T01:27:32.760Z,4.00
2019-01-28T01:31:41.003Z,4.00
2019-01-28T01:35:49.198Z,4.00
2019-01-28T01:39:57.435Z,4.00
2019-01-28T01:44:05.630Z,3.90
2019-01-28T01:48:13.838Z,3.90
2019-01-28T01:52:22.037Z,3.90
2019-01-28T01:56:30.245Z,3.90
2019-01-28T02:00:38.479Z,3.90
2019-01-28T02:04:46.738Z,4.00
2019-01-28T02:08:54.959Z,4.00
2019-01-28T02:13:03.205Z,4.00
2019-01-28T02:17:11.425Z,4.00
2019-01-28T02:21:19.645Z,3.90
2019-01-28T02:25:27.887Z,3.90
2019-01-28T02:29:36.103Z,3.80
2019-01-28T02:33:44.374Z,3.70
2019-01-28T02:37:52.617Z,3.60
2019-01-28T02:42:00.887Z,3.50
2019-01-28T02:46:09.161Z,3.60
2019-01-28T02:50:18.112Z,3.50
2019-01-28T02:54:26.315Z,3.40
2019-01-28T02:58:34.541Z,3.40
2019-01-28T03:02:42.755Z,3.30
2019-01-28T03:06:50.945Z,3.30
2019-01-28T03:10:59.194Z,3.20
2019-01-28T03:15:07.680Z,3.20
2019-01-28T03:19:15.904Z,3.10
2019-01-28T03:23:25.350Z,3.20
2019-01-28T03:27:33.588Z,3.20
2019-01-28T03:31:41.859Z,3.20
2019-01-28T03:35:50.056Z,3.20
2019-01-28T03:39:58.310Z,3.20
2019-01-28T03:44:06.562Z,3.30
2019-01-28T03:48:18.048Z,3.30
2019-01-28T03:52:26.358Z,3.20
2019-01-28T04:00:42.817Z,3.30
2019-01-28T04:04:51.095Z,3.20
2019-01-28T04:08:59.279Z,3.30
2019-01-28T04:13:07.511Z,3.30
2019-01-28T04:17:15.749Z,3.40
2019-01-28T04:21:23.974Z,3.30
2019-01-28T04:25:32.213Z,3.40
2019-01-28T04:29:40.464Z,3.30
2019-01-28T04:33:48.705Z,3.40
2019-01-28T04:37:56.961Z,3.30
2019-01-28T04:42:05.432Z,3.30
2019-01-28T04:46:13.697Z,3.30
2019-01-28T04:50:21.931Z,3.20
2019-01-28T04:54:30.191Z,3.20
2019-01-28T04:58:38.418Z,3.20
2019-01-28T05:02:46.666Z,3.20
2019-01-28T05:06:54.908Z,3.20
2019-01-28T05:11:03.100Z,3.20
2019-01-28T05:15:12.199Z,3.20
2019-01-28T05:19:20.451Z,3.10
2019-01-28T05:23:28.695Z,3.10
2019-01-28T05:27:36.884Z,3.10
2019-01-28T05:31:45.129Z,3.10
2019-01-28T05:35:53.366Z,3.00
2019-01-28T05:40:01.563Z,3.00
2019-01-28T05:44:09.857Z,3.00
2019-01-28T05:48:18.103Z,3.00
2019-01-28T05:52:26.347Z,3.10
2019-01-28T05:56:34.599Z,3.10
2019-01-28T06:00:44.773Z,3.10
2019-01-28T06:04:52.986Z,3.10
2019-01-28T06:09:01.265Z,3.10
2019-01-28T06:13:09.546Z,3.10
2019-01-28T06:17:17.754Z,3.10
2019-01-28T06:21:25.972Z,3.20
2019-01-28T06:25:34.183Z,3.20
2019-01-28T06:29:42.494Z,3.30
2019-01-28T06:33:50.749Z,3.30
2019-01-28T06:37:58.965Z,3.30
2019-01-28T06:42:07.228Z,3.40
2019-01-28T06:46:15.482Z,3.40
2019-01-28T06:54:31.754Z,3.60
2019-01-28T06:58:39.967Z,3.70
2019-01-28T07:02:48.223Z,3.80
2019-01-28T07:06:56.459Z,3.80
2019-01-28T07:11:04.757Z,3.90
2019-01-28T07:15:13.140Z,3.80
2019-01-28T07:19:21.372Z,3.90
2019-01-28T07:23:29.656Z,4.00
2019-01-28T07:27:37.888Z,4.10
2019-01-28T07:31:46.075Z,4.20
2019-01-28T07:35:54.344Z,4.20
2019-01-28T07:40:02.572Z,4.10
2019-01-28T07:44:10.862Z,4.30
2019-01-28T07:48:19.156Z,4.30
2019-01-28T07:52:27.449Z,4.60
2019-01-28T07:56:35.671Z,4.60
2019-01-28T08:00:43.907Z,4.70
2019-01-28T08:04:52.141Z,4.70
2019-01-28T08:09:00.378Z,4.70
2019-01-28T08:13:08.589Z,4.80
2019-01-28T08:17:16.786Z,4.80
2019-01-28T08:21:24.991Z,4.90
2019-01-28T08:25:33.236Z,4.90
2019-01-28T08:29:41.482Z,4.90
2019-01-28T08:33:49.742Z,4.90
2019-01-28T08:37:57.973Z,4.90
2019-01-28T08:42:06.222Z,4.90
2019-01-28T08:46:14.489Z,5.00
2019-01-28T08:50:23.277Z,5.00
2019-01-28T08:54:31.525Z,5.00
2019-01-28T08:58:39.741Z,5.10
2019-01-28T09:02:47.971Z,5.10
2019-01-28T09:06:56.171Z,5.10
2019-01-28T09:11:04.399Z,5.20
2019-01-28T09:15:14.662Z,5.10
2019-01-28T09:19:22.886Z,5.20
2019-01-28T09:23:31.092Z,5.20
2019-01-28T09:27:39.326Z,5.30
2019-01-28T09:31:48.392Z,5.30
2019-01-28T09:35:55.829Z,5.30
2019-01-28T09:40:05.832Z,5.20
2019-01-28T09:44:14.094Z,5.10
2019-01-28T09:48:22.294Z,5.10
2019-01-28T09:52:30.598Z,5.10
2019-01-28T09:56:38.852Z,5.10
2019-01-28T10:00:49.093Z,5.10
2019-01-28T10:04:57.293Z,5.10
2019-01-28T10:09:10.152Z,5.00
2019-01-28T10:13:16.324Z,5.00
2019-01-28T10:17:24.538Z,5.00
2019-01-28T10:21:32.775Z,5.00
2019-01-28T10:25:41.233Z,5.00
2019-01-28T10:29:49.604Z,5.00
2019-01-28T10:33:57.865Z,5.10
2019-01-28T10:38:06.655Z,5.10
2019-01-28T10:42:14.917Z,5.10
2019-01-28T10:46:23.154Z,5.10
2019-01-28T10:50:31.527Z,5.00
2019-01-28T10:54:39.757Z,4.90
2019-01-28T10:58:48.027Z,4.90
2019-01-28T11:02:56.408Z,4.90
2019-01-28T11:07:04.649Z,4.80
2019-01-28T11:11:12.919Z,4.80
2019-01-28T11:15:23.045Z,4.80
2019-01-28T11:19:32.295Z,4.70
2019-01-28T11:23:39.578Z,4.80
2019-01-28T11:27:47.907Z,4.80
2019-01-28T11:31:56.054Z,4.90
2019-01-28T11:36:05.350Z,4.80
2019-01-28T11:40:14.392Z,4.90
2019-01-28T11:44:22.494Z,4.90
2019-01-28T11:48:32.673Z,4.90
2019-01-28T11:52:39.028Z,4.90
2019-01-28T11:56:47.229Z,4.80
2019-01-28T12:01:02.979Z,4.80
2019-01-28T12:05:11.215Z,4.80
2019-01-28T12:09:19.478Z,4.80
2019-01-28T12:13:27.736Z,4.80
2019-01-28T12:17:36.020Z,4.80
2019-01-28T12:21:44.246Z,4.80
2019-01-28T12:25:52.509Z,4.80
2019-01-28T12:30:00.735Z,4.70
2019-01-28T12:34:09.033Z,4.70
2019-01-28T12:38:17.233Z,4.60
2019-01-28T12:42:25.446Z,4.60
2019-01-28T12:46:33.690Z,4.50
2019-01-28T12:50:41.913Z,4.50
2019-01-28T12:54:50.182Z,4.40
2019-01-28T12:58:58.379Z,4.40
2019-01-28T13:03:06.821Z,4.50
2019-01-28T13:07:15.061Z,4.40
2019-01-28T13:11:23.255Z,4.40
2019-01-28T13:15:31.498Z,4.30
2019-01-28T13:19:39.738Z,4.30
2019-01-28T13:23:48.018Z,4.30
2019-01-28T13:27:56.355Z,4.30
2019-01-28T13:32:04.647Z,4.40
2019-01-28T13:36:12.908Z,4.30
2019-01-28T13:40:21.157Z,4.40
2019-01-28T13:44:29.390Z,4.40
2019-01-28T13:48:37.618Z,4.40
2019-01-28T13:52:45.945Z,4.50
2019-01-28T13:56:54.228Z,4.60
2019-01-28T14:01:02.449Z,4.60
2019-01-28T14:05:10.989Z,4.60
2019-01-28T14:09:19.203Z,4.60
2019-01-28T14:13:27.495Z,4.60
2019-01-28T14:17:35.682Z,4.60
2019-01-28T14:21:43.900Z,4.60
2019-01-28T14:25:52.084Z,4.70
2019-01-28T14:30:00.332Z,4.70
2019-01-28T14:34:08.670Z,4.70
2019-01-28T14:38:16.961Z,4.70
2019-01-28T14:42:25.209Z,4.70
2019-01-28T14:46:33.479Z,4.80
2019-01-28T14:50:41.677Z,4.80
2019-01-28T14:54:49.913Z,4.90
2019-01-28T14:58:58.162Z,4.80
2019-01-28T15:03:06.446Z,4.90
2019-01-28T15:07:14.686Z,4.90
2019-01-28T15:11:22.939Z,4.90
2019-01-28T15:15:33.085Z,5.00
2019-01-28T15:19:41.369Z,5.00
2019-01-28T15:23:49.674Z,5.00
2019-01-28T15:27:57.939Z,4.90
2019-01-28T15:32:06.138Z,5.00
2019-01-28T15:36:14.445Z,5.00
2019-01-28T15:40:25.030Z,5.00
2019-01-28T15:44:33.271Z,5.00
2019-01-28T15:48:41.519Z,5.00
2019-01-28T15:52:51.160Z,5.00
2019-01-28T15:56:58.036Z,4.90
2019-01-28T16:01:06.290Z,4.90
2019-01-28T16:05:14.490Z,4.90
2019-01-28T16:09:28.865Z,4.90
2019-01-28T16:13:30.990Z,4.90
2019-01-28T16:17:39.214Z,4.80
2019-01-28T16:21:47.478Z,4.80
2019-01-28T16:25:55.695Z,4.70
2019-01-28T16:30:05.607Z,4.70
2019-01-28T16:38:22.725Z,4.70
2019-01-28T16:42:30.940Z,4.70
2019-01-28T16:46:39.149Z,4.60
2019-01-28T16:50:47.362Z,4.50
2019-01-28T16:54:55.573Z,4.60
2019-01-28T16:59:03.809Z,4.50
2019-01-28T17:03:13.157Z,4.50
2019-01-28T17:07:21.411Z,4.50
2019-01-28T17:11:29.634Z,4.50
2019-01-28T17:15:37.844Z,4.50
2019-01-28T17:19:46.060Z,4.50
2019-01-28T17:23:54.294Z,4.60
2019-01-28T17:28:02.493Z,4.40
2019-01-28T17:32:10.691Z,4.40
2019-01-28T17:36:18.954Z,4.40
2019-01-28T17:40:27.245Z,4.40
2019-01-28T17:44:35.508Z,4.30
2019-01-28T17:48:43.833Z,4.30
2019-01-28T17:52:52.089Z,4.40
2019-01-28T17:57:00.298Z,4.30
2019-01-28T18:01:08.517Z,4.30
2019-01-28T18:05:16.718Z,4.30
2019-01-28T18:09:24.926Z,4.20
2019-01-28T18:17:41.192Z,4.10
2019-01-28T18:21:49.369Z,4.10
2019-01-28T18:25:57.619Z,4.00
2019-01-28T18:30:08.129Z,3.90
2019-01-28T18:34:16.405Z,3.90
2019-01-28T18:38:24.607Z,4.00
2019-01-28T18:42:32.809Z,4.00
2019-01-28T18:46:41.033Z,3.80
2019-01-28T18:50:49.222Z,3.90
2019-01-28T18:54:57.434Z,3.80
2019-01-28T18:59:05.654Z,3.70
2019-01-28T19:03:13.873Z,3.60
2019-01-28T19:07:27.450Z,3.40
2019-01-28T19:12:40.806Z,3.50
2019-01-28T19:16:56.258Z,3.30
2019-01-28T19:21:09.379Z,3.20
2019-01-28T19:25:17.605Z,3.10
2019-01-28T19:29:25.813Z,3.10
2019-01-28T19:33:34.039Z,3.00
2019-01-28T19:37:42.349Z,3.10
2019-01-28T19:41:50.696Z,3.10
2019-01-28T19:45:59.013Z,2.90
2019-01-28T19:50:09.744Z,3.00
2019-01-28T19:54:17.956Z,2.90
2019-01-28T19:58:26.173Z,2.80
2019-01-28T20:02:34.421Z,2.80
2019-01-28T20:06:42.707Z,2.80
2019-01-28T20:10:50.965Z,2.80
2019-01-28T20:14:59.462Z,2.70
2019-01-28T20:19:07.678Z,2.70
2019-01-28T20:23:15.938Z,2.80
2019-01-28T20:27:24.197Z,2.70
2019-01-28T20:31:32.370Z,2.60
2019-01-28T20:35:40.607Z,2.60
2019-01-28T20:39:48.848Z,2.60
2019-01-28T20:43:57.092Z,2.60
2019-01-28T20:48:05.308Z,2.60
2019-01-28T20:52:13.687Z,2.60
2019-01-28T20:56:21.904Z,2.60
2019-01-28T21:00:30.122Z,2.70
2019-01-28T21:04:38.448Z,2.70
2019-01-28T21:08:46.631Z,2.80
2019-01-28T21:12:54.901Z,2.80
2019-01-28T21:17:03.109Z,2.70
2019-01-28T21:21:11.333Z,2.70
2019-01-28T21:25:21.257Z,2.70
2019-01-28T21:29:29.424Z,2.50
2019-01-28T21:33:37.613Z,2.50
2019-01-28T21:37:50.087Z,2.50
2019-01-28T21:41:58.307Z,2.50
2019-01-28T21:46:06.521Z,2.40
2019-01-28T21:50:14.727Z,2.40
2019-01-28T21:54:22.968Z,2.40
2019-01-28T21:58:31.188Z,2.40
2019-01-28T22:02:39.403Z,2.40
2019-01-28T22:06:47.587Z,2.40
2019-01-28T22:10:56.388Z,2.50
2019-01-28T22:15:04.551Z,2.40
2019-01-28T22:19:12.823Z,2.40
2019-01-28T22:23:21.058Z,2.40
2019-01-28T22:27:29.261Z,2.40
2019-01-28T22:31:37.505Z,2.40
2019-01-28T22:35:45.715Z,2.40
2019-01-28T22:39:53.962Z,2.40
2019-01-28T22:44:02.185Z,2.50
2019-01-28T22:48:10.406Z,2.50
2019-01-28T22:52:18.630Z,2.50
2019-01-28T22:56:26.862Z,2.40
2019-01-28T23:00:46.131Z,2.40
2019-01-28T23:04:54.415Z,2.40
2019-01-28T23:09:02.655Z,2.50
2019-01-28T23:13:10.907Z,2.50
2019-01-28T23:17:19.175Z,2.50
2019-01-28T23:21:27.403Z,2.50
2019-01-28T23:25:35.615Z,2.40
2019-01-28T23:29:43.838Z,2.40
2019-01-28T23:33:52.061Z,2.50
2019-01-28T23:38:00.279Z,2.40
2019-01-28T23:42:08.590Z,2.40
2019-01-28T23:46:16.861Z,2.50
2019-01-28T23:50:25.076Z,2.60
2019-01-28T23:54:33.294Z,2.50
2019-01-28T23:58:41.534Z,2.50
